createdAt,value
2018-04-27T00:00:16.891Z,12.90
2018-04-27T00:02:53.742Z,13.27
2018-04-27T00:05:30.531Z,13.20
2018-04-27T00:08:08.380Z,11.17
2018-04-27T00:10:46.831Z,9.43
2018-04-27T00:13:23.667Z,13.93
2018-04-27T00:16:01.034Z,10.20
2018-04-27T00:18:38.290Z,15.63
2018-04-27T00:21:15.264Z,13.60
2018-04-27T00:23:53.929Z,12.83
2018-04-27T00:26:30.982Z,11.23
2018-04-27T00:29:08.420Z,11.33
2018-04-27T00:31:45.489Z,8.90
2018-04-27T00:34:22.203Z,6.23
2018-04-27T00:36:59.148Z,5.80
2018-04-27T00:39:38.593Z,4.93
2018-04-27T00:42:15.511Z,5.40
2018-04-27T00:44:53.304Z,6.67
2018-04-27T00:47:32.888Z,6.83
2018-04-27T00:50:09.730Z,12.43
2018-04-27T00:52:56.701Z,6.40
2018-04-27T00:55:35.323Z,6.20
2018-04-27T00:58:12.033Z,11.30
2018-04-27T01:00:50.035Z,7.30
2018-04-27T01:03:28.035Z,6.83
2018-04-27T01:06:06.169Z,5.97
2018-04-27T01:08:44.076Z,7.80
2018-04-27T01:11:21.884Z,5.13
2018-04-27T01:13:58.890Z,5.73
2018-04-27T01:16:37.018Z,5.67
2018-04-27T01:19:15.172Z,6.20
2018-04-27T01:21:52.066Z,8.33
2018-04-27T01:24:29.416Z,5.50
2018-04-27T01:27:06.195Z,6.13
2018-04-27T01:29:44.673Z,8.70
2018-04-27T01:32:24.221Z,7.30
2018-04-27T01:35:01.004Z,7.17
2018-04-27T01:37:46.203Z,5.93
2018-04-27T01:40:27.224Z,6.20
2018-04-27T01:43:03.868Z,8.10
2018-04-27T01:45:41.749Z,5.00
2018-04-27T01:48:19.640Z,7.30
2018-04-27T01:50:57.000Z,5.00
2018-04-27T01:53:38.271Z,8.23
2018-04-27T01:56:15.324Z,5.83
2018-04-27T01:58:52.694Z,5.13
2018-04-27T02:01:30.003Z,6.87
2018-04-27T02:04:06.800Z,5.40
2018-04-27T02:06:43.774Z,4.20
2018-04-27T02:09:20.798Z,6.00
2018-04-27T02:11:58.175Z,4.00
2018-04-27T02:14:36.067Z,4.27
2018-04-27T02:17:16.726Z,5.40
2018-04-27T02:19:54.246Z,4.17
2018-04-27T02:22:30.695Z,6.13
2018-04-27T02:25:09.911Z,6.77
2018-04-27T02:27:46.660Z,8.07
2018-04-27T02:30:23.770Z,7.07
2018-04-27T02:33:01.244Z,5.73
2018-04-27T02:35:38.003Z,7.33
2018-04-27T02:38:14.380Z,6.93
2018-04-27T02:40:56.678Z,6.00
2018-04-27T02:43:34.505Z,6.40
2018-04-27T02:46:11.850Z,5.03
2018-04-27T02:48:51.963Z,7.03
2018-04-27T02:51:28.765Z,7.60
2018-04-27T02:54:05.359Z,4.67
2018-04-27T02:56:42.378Z,6.47
2018-04-27T02:59:19.835Z,3.93
2018-04-27T03:02:01.486Z,5.73
2018-04-27T03:04:38.134Z,5.97
2018-04-27T03:07:15.555Z,6.10
2018-04-27T03:09:55.374Z,3.40
2018-04-27T03:12:32.194Z,3.40
2018-04-27T03:15:09.059Z,3.77
2018-04-27T03:17:50.599Z,4.23
2018-04-27T03:20:27.368Z,5.50
2018-04-27T03:23:04.325Z,4.57
2018-04-27T03:25:41.289Z,6.60
2018-04-27T03:28:18.561Z,4.03
2018-04-27T03:30:57.964Z,5.00
2018-04-27T03:33:36.900Z,4.20
2018-04-27T03:36:15.747Z,5.50
2018-04-27T03:38:52.969Z,8.10
2018-04-27T03:41:30.558Z,5.10
2018-04-27T03:44:07.476Z,4.37
2018-04-27T03:46:44.229Z,5.07
2018-04-27T03:49:20.737Z,6.37
2018-04-27T03:51:57.553Z,6.07
2018-04-27T03:54:34.237Z,5.10
2018-04-27T03:57:11.408Z,5.50
2018-04-27T04:01:03.271Z,4.13
2018-04-27T04:03:50.831Z,6.77
2018-04-27T04:06:27.564Z,5.17
2018-04-27T04:09:07.639Z,6.17
2018-04-27T04:11:45.639Z,4.27
2018-04-27T04:14:25.794Z,6.33
2018-04-27T04:17:09.168Z,5.63
2018-04-27T04:19:46.254Z,5.63
2018-04-27T04:22:23.013Z,6.00
2018-04-27T04:25:02.164Z,4.47
2018-04-27T04:27:39.135Z,6.60
2018-04-27T04:30:20.614Z,5.10
2018-04-27T04:32:57.564Z,4.37
2018-04-27T04:35:35.687Z,6.67
2018-04-27T04:38:13.295Z,3.57
2018-04-27T04:40:51.041Z,5.97
2018-04-27T04:43:32.356Z,6.63
2018-04-27T04:46:09.911Z,4.70
2018-04-27T04:48:48.848Z,5.00
2018-04-27T04:51:25.789Z,3.93
2018-04-27T04:54:02.661Z,4.30
2018-04-27T04:56:41.631Z,6.90
2018-04-27T04:59:19.303Z,4.70
2018-04-27T05:01:58.576Z,5.93
2018-04-27T05:04:35.475Z,4.43
2018-04-27T05:07:12.101Z,5.37
2018-04-27T05:09:52.752Z,5.17
2018-04-27T05:12:31.047Z,5.37
2018-04-27T05:15:09.620Z,5.37
2018-04-27T05:17:51.730Z,3.90
2018-04-27T05:20:29.266Z,4.73
2018-04-27T05:23:08.110Z,6.17
2018-04-27T05:25:49.574Z,4.43
2018-04-27T05:28:33.891Z,4.60
2018-04-27T05:31:20.864Z,5.77
2018-04-27T05:33:58.294Z,4.40
2018-04-27T05:36:35.145Z,4.20
2018-04-27T05:39:15.061Z,3.90
2018-04-27T05:41:56.596Z,5.63
2018-04-27T05:44:33.724Z,3.90
2018-04-27T05:47:13.780Z,3.93
2018-04-27T05:49:57.182Z,4.13
2018-04-27T05:52:33.616Z,4.97
2018-04-27T05:55:15.299Z,5.83
2018-04-27T05:57:55.983Z,3.93
2018-04-27T06:00:39.327Z,5.27
2018-04-27T06:03:16.639Z,4.37
2018-04-27T06:05:56.879Z,3.40
2018-04-27T06:08:35.582Z,3.93
2018-04-27T06:11:18.817Z,8.37
2018-04-27T06:14:01.093Z,7.93
2018-04-27T06:16:37.956Z,4.20
2018-04-27T06:19:18.511Z,3.20
2018-04-27T06:22:03.105Z,3.57
2018-04-27T06:24:41.024Z,3.37
2018-04-27T06:27:21.318Z,5.83
2018-04-27T06:30:03.476Z,5.03
2018-04-27T06:32:40.847Z,5.00
2018-04-27T06:35:25.879Z,3.27
2018-04-27T06:38:03.187Z,8.33
2018-04-27T06:40:41.132Z,6.13
2018-04-27T06:43:23.033Z,3.83
2018-04-27T06:46:02.426Z,4.77
2018-04-27T06:48:42.406Z,4.43
2018-04-27T06:51:22.623Z,3.73
2018-04-27T06:54:03.118Z,8.97
2018-04-27T06:56:46.826Z,3.17
2018-04-27T06:59:24.893Z,4.67
2018-04-27T07:02:06.190Z,5.23
2018-04-27T07:04:49.338Z,4.53
2018-04-27T07:07:33.333Z,5.37
2018-04-27T07:10:12.383Z,3.93
2018-04-27T07:12:49.545Z,3.87
2018-04-27T07:15:30.231Z,4.90
2018-04-27T07:18:08.178Z,4.03
2018-04-27T07:20:48.760Z,5.13
2018-04-27T07:23:29.505Z,4.83
2018-04-27T07:26:07.366Z,5.60
2018-04-27T07:28:49.856Z,4.80
2018-04-27T07:31:26.754Z,6.13
2018-04-27T07:34:08.904Z,2.90
2018-04-27T07:36:49.902Z,5.67
2018-04-27T07:39:29.996Z,4.60
2018-04-27T07:42:13.842Z,4.00
2018-04-27T07:44:50.849Z,5.93
2018-04-27T07:47:31.990Z,5.67
2018-04-27T07:50:12.783Z,6.40
2018-04-27T07:52:51.746Z,4.43
2018-04-27T07:55:40.316Z,4.63
2018-04-27T07:58:20.746Z,4.23
2018-04-27T08:01:13.158Z,5.10
2018-04-27T08:03:51.975Z,6.23
2018-04-27T08:06:31.251Z,4.17
2018-04-27T08:09:13.954Z,4.40
2018-04-27T08:11:52.874Z,6.33
2018-04-27T08:14:32.987Z,4.03
2018-04-27T08:17:18.646Z,3.33
2018-04-27T08:19:58.008Z,7.00
2018-04-27T08:22:38.933Z,5.53
2018-04-27T08:25:16.145Z,3.03
2018-04-27T08:28:02.050Z,6.87
2018-04-27T08:30:42.924Z,5.93
2018-04-27T08:33:27.650Z,3.20
2018-04-27T08:36:12.872Z,4.70
2018-04-27T08:39:02.175Z,4.03
2018-04-27T08:41:44.325Z,4.20
2018-04-27T08:44:24.192Z,4.00
2018-04-27T08:47:10.789Z,5.93
2018-04-27T08:50:20.106Z,3.20
2018-04-27T08:53:00.139Z,3.93
2018-04-27T08:55:38.857Z,6.70
2018-04-27T08:58:22.436Z,5.63
2018-04-27T09:01:02.084Z,4.27
2018-04-27T09:03:39.112Z,5.43
2018-04-27T09:06:27.524Z,4.57
2018-04-27T09:09:04.838Z,4.57
2018-04-27T09:11:45.891Z,4.90
2018-04-27T09:14:23.632Z,5.67
2018-04-27T09:17:01.319Z,6.50
2018-04-27T09:19:43.472Z,3.93
2018-04-27T09:22:23.670Z,4.63
2018-04-27T09:25:00.795Z,4.50
2018-04-27T09:27:50.849Z,3.70
2018-04-27T09:30:30.781Z,2.90
2018-04-27T09:33:07.575Z,3.73
2018-04-27T09:35:50.738Z,4.17
2018-04-27T09:38:32.345Z,7.10
2018-04-27T09:46:12.771Z,4.10
2018-04-27T09:52:35.476Z,4.50
2018-04-27T09:55:39.126Z,3.80
2018-04-27T09:58:22.470Z,3.83
2018-04-27T10:01:13.522Z,5.00
2018-04-27T10:04:08.843Z,2.67
2018-04-27T10:09:31.417Z,3.63
2018-04-27T10:12:12.223Z,3.60
2018-04-27T10:14:54.944Z,3.00
2018-04-27T10:17:32.882Z,3.17
2018-04-27T10:20:13.562Z,4.37
2018-04-27T10:28:52.979Z,2.87
2018-04-27T10:31:36.503Z,2.97
2018-04-27T10:34:28.211Z,7.50
2018-04-27T10:37:09.578Z,4.53
2018-04-27T10:40:03.061Z,5.93
2018-04-27T10:43:02.143Z,5.47
2018-04-27T10:46:08.556Z,3.77
2018-04-27T10:49:13.651Z,5.63
2018-04-27T10:51:58.948Z,4.57
2018-04-27T10:54:40.008Z,2.90
2018-04-27T10:57:45.200Z,4.80
2018-04-27T11:03:46.373Z,4.43
2018-04-27T11:06:58.488Z,22.10
2018-04-27T11:12:52.887Z,5.57
2018-04-27T11:15:36.779Z,5.10
2018-04-27T11:18:33.502Z,4.03
2018-04-27T11:21:18.700Z,4.27
2018-04-27T11:24:18.367Z,5.37
2018-04-27T11:27:13.678Z,7.10
2018-04-27T11:30:00.677Z,2.63
2018-04-27T11:32:43.061Z,3.30
2018-04-27T11:35:23.247Z,3.67
2018-04-27T11:38:02.879Z,3.67
2018-04-27T11:40:42.999Z,2.43
2018-04-27T11:43:25.272Z,4.53
2018-04-27T11:46:16.199Z,4.30
2018-04-27T11:49:03.132Z,3.93
2018-04-27T11:51:44.300Z,3.20
2018-04-27T11:54:24.865Z,3.37
2018-04-27T11:57:02.289Z,3.70
2018-04-27T11:59:41.407Z,7.67
2018-04-27T12:02:35.002Z,5.80
2018-04-27T12:05:22.752Z,4.40
2018-04-27T12:08:14.180Z,3.67
2018-04-27T12:10:58.795Z,3.13
2018-04-27T12:14:00.632Z,4.63
2018-04-27T12:16:41.029Z,2.63
2018-04-27T12:45:42.199Z,7.40
2018-04-27T12:48:28.361Z,5.13
2018-04-27T12:52:51.192Z,3.33
2018-04-27T12:55:30.532Z,5.60
2018-04-27T12:58:08.926Z,4.93
2018-04-27T13:00:55.421Z,5.30
2018-04-27T13:03:34.956Z,2.43
2018-04-27T13:06:14.848Z,2.33
2018-04-27T13:09:05.187Z,4.90
2018-04-27T13:11:55.428Z,5.00
2018-04-27T13:14:34.899Z,4.47
2018-04-27T13:17:14.681Z,4.37
2018-04-27T13:19:57.089Z,4.27
2018-04-27T13:22:48.465Z,4.90
2018-04-27T13:25:30.448Z,3.67
2018-04-27T13:28:10.409Z,5.23
2018-04-27T13:30:54.234Z,3.47
2018-04-27T13:33:33.144Z,4.20
2018-04-27T13:36:15.900Z,4.23
2018-04-27T13:38:52.611Z,7.70
2018-04-27T13:41:31.499Z,3.33
2018-04-27T13:44:12.584Z,3.10
2018-04-27T13:46:51.546Z,4.50
2018-04-27T13:52:17.492Z,5.10
2018-04-27T13:54:56.946Z,3.20
2018-04-27T13:57:41.646Z,4.33
2018-04-27T14:00:18.737Z,3.67
2018-04-27T14:02:59.453Z,2.87
2018-04-27T14:05:52.649Z,3.83
2018-04-27T14:08:39.653Z,5.50
2018-04-27T14:11:22.047Z,5.13
2018-04-27T14:13:58.985Z,3.40
2018-04-27T14:16:42.031Z,2.93
2018-04-27T14:19:23.046Z,6.70
2018-04-27T14:22:04.166Z,5.00
2018-04-27T14:24:43.305Z,4.67
2018-04-27T14:27:28.747Z,4.43
2018-04-27T14:30:15.268Z,6.80
2018-04-27T14:33:06.109Z,2.97
2018-04-27T14:35:45.295Z,2.63
2018-04-27T14:38:25.106Z,3.93
2018-04-27T14:41:07.843Z,3.97
2018-04-27T14:43:45.078Z,5.23
2018-04-27T14:46:22.850Z,5.47
2018-04-27T14:49:03.424Z,2.77
2018-04-27T14:51:43.947Z,4.37
2018-04-27T14:54:21.907Z,6.60
2018-04-27T14:57:09.733Z,4.77
2018-04-27T14:59:53.367Z,5.73
2018-04-27T15:02:45.837Z,5.27
2018-04-27T15:08:21.558Z,2.80
2018-04-27T15:13:47.859Z,3.80
2018-04-27T15:16:24.541Z,5.53
2018-04-27T15:19:10.548Z,5.07
2018-04-27T15:21:48.114Z,2.93
2018-04-27T15:24:30.439Z,6.40
2018-04-27T15:27:07.708Z,3.73
2018-04-27T15:29:53.242Z,2.90
2018-04-27T15:32:30.754Z,2.50
2018-04-27T15:35:07.965Z,4.13
2018-04-27T15:37:50.066Z,4.03
2018-04-27T15:40:32.314Z,4.20
2018-04-27T15:43:26.245Z,3.77
2018-04-27T15:46:09.418Z,3.93
2018-04-27T15:48:49.748Z,4.90
2018-04-27T15:51:32.524Z,3.07
2018-04-27T15:54:09.644Z,2.50
2018-04-27T15:56:52.458Z,2.80
2018-04-27T16:02:21.523Z,3.17
2018-04-27T16:05:08.559Z,2.77
2018-04-27T16:07:57.380Z,2.87
2018-04-27T16:10:46.960Z,3.90
2018-04-27T16:13:28.576Z,3.00
2018-04-27T16:16:10.382Z,2.37
2018-04-27T16:18:50.426Z,4.90
2018-04-27T16:21:32.402Z,5.40
2018-04-27T16:24:12.447Z,11.90
2018-04-27T16:26:52.711Z,5.23
2018-04-27T16:29:34.452Z,4.00
2018-04-27T16:32:20.048Z,3.70
2018-04-27T16:34:58.584Z,4.13
2018-04-27T16:37:35.908Z,5.23
2018-04-27T16:40:18.613Z,9.77
2018-04-27T16:42:55.762Z,4.20
2018-04-27T16:45:38.584Z,4.00
2018-04-27T16:48:15.340Z,2.80
2018-04-27T16:53:39.231Z,5.03
2018-04-27T16:56:16.885Z,2.37
2018-04-27T16:58:57.371Z,4.07
2018-04-27T17:01:37.289Z,10.03
2018-04-27T17:04:18.025Z,12.27
2018-04-27T17:06:55.034Z,11.00
2018-04-27T17:09:35.937Z,7.73
2018-04-27T17:12:16.849Z,5.80
2018-04-27T17:15:02.479Z,5.87
2018-04-27T17:17:39.428Z,3.77
2018-04-27T17:20:19.059Z,6.73
2018-04-27T17:23:03.821Z,6.53
2018-04-27T17:25:40.545Z,4.13
2018-04-27T17:28:20.856Z,3.67
2018-04-27T17:31:01.483Z,3.83
2018-04-27T17:33:40.558Z,3.53
2018-04-27T17:36:26.143Z,3.97
2018-04-27T17:39:02.882Z,3.10
2018-04-27T17:41:41.475Z,3.57
2018-04-27T17:44:22.242Z,4.73
2018-04-27T17:47:01.067Z,3.80
2018-04-27T17:49:47.682Z,2.20
2018-04-27T17:52:24.076Z,3.93
2018-04-27T17:55:02.469Z,2.97
2018-04-27T17:57:44.675Z,4.87
2018-04-27T18:00:24.656Z,3.30
2018-04-27T18:03:05.281Z,8.03
2018-04-27T18:05:48.717Z,4.13
2018-04-27T18:08:32.802Z,5.07
2018-04-27T18:11:10.013Z,4.97
2018-04-27T18:13:48.571Z,4.57
2018-04-27T18:16:28.414Z,4.00
2018-04-27T18:19:07.291Z,4.73
2018-04-27T18:21:44.685Z,2.80
2018-04-27T18:24:26.042Z,5.10
2018-04-27T18:27:06.903Z,4.67
2018-04-27T18:29:48.363Z,4.57
2018-04-27T18:32:29.371Z,5.00
2018-04-27T18:35:07.974Z,4.57
2018-04-27T18:37:51.341Z,5.07
2018-04-27T18:40:29.339Z,4.43
2018-04-27T18:43:12.174Z,5.00
2018-04-27T18:45:49.138Z,8.50
2018-04-27T18:51:32.432Z,8.13
2018-04-27T18:54:11.798Z,6.70
2018-04-27T18:56:54.475Z,6.90
2018-04-27T18:59:31.739Z,9.30
2018-04-27T19:02:09.147Z,5.93
2018-04-27T19:04:52.832Z,5.43
2018-04-27T19:07:33.613Z,8.90
2018-04-27T19:10:11.234Z,6.77
2018-04-27T19:12:54.120Z,6.27
2018-04-27T19:15:34.135Z,6.73
2018-04-27T19:18:11.356Z,9.00
2018-04-27T19:20:51.482Z,6.40
2018-04-27T19:23:31.173Z,5.80
2018-04-27T19:26:11.396Z,6.57
2018-04-27T19:28:55.276Z,5.93
2018-04-27T19:31:37.230Z,8.17
2018-04-27T19:34:15.473Z,7.60
2018-04-27T19:36:53.230Z,11.60
2018-04-27T19:39:38.037Z,11.33
2018-04-27T19:42:15.283Z,9.37
2018-04-27T19:44:52.619Z,13.63
2018-04-27T19:47:32.954Z,7.70
2018-04-27T19:53:03.744Z,8.33
2018-04-27T19:55:40.922Z,6.67
2018-04-27T19:58:18.925Z,6.50
2018-04-27T20:00:57.562Z,12.67
2018-04-27T20:03:39.102Z,6.53
2018-04-27T20:06:17.365Z,4.73
2018-04-27T20:08:56.572Z,8.10
2018-04-27T20:11:39.397Z,7.27
2018-04-27T20:14:28.540Z,9.30
2018-04-27T20:17:05.903Z,9.67
2018-04-27T20:19:45.661Z,5.43
2018-04-27T20:22:24.280Z,9.40
2018-04-27T20:25:01.291Z,9.37
2018-04-27T20:27:44.245Z,8.53
2018-04-27T20:30:21.240Z,22.87
2018-04-27T20:33:00.109Z,57.33
2018-04-27T20:35:42.437Z,64.27
2018-04-27T20:38:27.750Z,102.40
2018-04-27T20:41:04.850Z,56.93
2018-04-27T20:43:43.617Z,34.03
2018-04-27T20:46:25.559Z,30.93
2018-04-27T20:49:04.375Z,45.20
2018-04-27T20:51:43.848Z,54.27
2018-04-27T20:54:24.975Z,43.87
2018-04-27T20:57:05.290Z,28.70
2018-04-27T20:59:47.127Z,19.77
2018-04-27T21:02:24.574Z,41.97
2018-04-27T21:05:07.780Z,56.60
2018-04-27T21:07:46.815Z,43.03
2018-04-27T21:10:32.540Z,36.97
2018-04-27T21:13:10.135Z,26.83
2018-04-27T21:15:50.197Z,21.07
2018-04-27T21:18:30.156Z,29.57
2018-04-27T21:21:07.278Z,39.87
2018-04-27T21:23:46.169Z,46.77
2018-04-27T21:26:24.047Z,45.73
2018-04-27T21:29:01.109Z,40.90
2018-04-27T21:31:38.201Z,28.13
2018-04-27T21:34:14.922Z,29.67
2018-04-27T21:36:52.886Z,23.37
2018-04-27T21:39:33.521Z,17.73
2018-04-27T21:42:10.539Z,12.77
2018-04-27T21:44:47.632Z,15.47
2018-04-27T21:47:25.972Z,17.27
2018-04-27T21:50:02.840Z,12.97
2018-04-27T21:52:40.129Z,12.57
2018-04-27T21:55:18.431Z,11.73
2018-04-27T21:57:56.089Z,13.43
2018-04-27T22:00:34.171Z,11.40
2018-04-27T22:03:14.161Z,8.87
2018-04-27T22:05:51.233Z,11.10
2018-04-27T22:08:28.545Z,11.83
2018-04-27T22:11:06.837Z,13.80
2018-04-27T22:13:44.492Z,12.50
2018-04-27T22:16:31.959Z,15.30
2018-04-27T22:19:12.266Z,10.53
2018-04-27T22:21:52.970Z,10.43
2018-04-27T22:24:42.096Z,11.73
2018-04-27T22:27:19.671Z,11.57
2018-04-27T22:29:59.720Z,15.10
2018-04-27T22:32:38.708Z,16.87
2018-04-27T22:35:20.877Z,15.10
2018-04-27T22:37:58.916Z,23.03
2018-04-27T22:40:36.446Z,19.93
2018-04-27T22:43:20.462Z,17.77
2018-04-27T22:46:01.426Z,23.63
2018-04-27T22:48:39.245Z,14.57
2018-04-27T22:51:22.657Z,10.67
2018-04-27T22:54:00.373Z,14.07
2018-04-27T22:56:40.334Z,14.47
2018-04-27T22:59:21.612Z,13.80
2018-04-27T23:02:00.356Z,10.23
2018-04-27T23:04:45.057Z,7.83
2018-04-27T23:07:24.468Z,6.67
2018-04-27T23:10:03.152Z,9.77
2018-04-27T23:12:47.353Z,12.10
2018-04-27T23:15:25.117Z,10.90
2018-04-27T23:18:04.383Z,11.33
2018-04-27T23:20:46.046Z,9.43
2018-04-27T23:23:23.303Z,9.13
2018-04-27T23:26:00.472Z,10.60
2018-04-27T23:28:39.062Z,14.50
2018-04-27T23:31:19.020Z,10.77
2018-04-27T23:34:07.849Z,8.87
2018-04-27T23:36:49.444Z,11.43
2018-04-27T23:39:29.520Z,13.87
2018-04-27T23:42:10.986Z,8.83
2018-04-27T23:44:49.053Z,11.53
2018-04-27T23:47:26.968Z,11.73
2018-04-27T23:50:13.089Z,12.17
2018-04-27T23:52:50.362Z,12.73
2018-04-27T23:55:27.351Z,11.33
2018-04-27T23:58:09.191Z,14.47
